sensor_id;sensor_type;location;lat;lon;timestamp;temperature;humidity
48752;DHT22;34544;48.836;9.174;2022-08-01T00:01:25;22.10;90.50
48752;DHT22;34544;48.836;9.174;2022-08-01T00:03:51;22.00;90.50
48752;DHT22;34544;48.836;9.174;2022-08-01T00:06:16;22.00;90.50
48752;DHT22;34544;48.836;9.174;2022-08-01T00:08:42;22.00;90.60
48752;DHT22;34544;48.836;9.174;2022-08-01T00:11:08;22.00;90.60
48752;DHT22;34544;48.836;9.174;2022-08-01T00:13:34;22.00;90.80
48752;DHT22;34544;48.836;9.174;2022-08-01T00:16:00;21.90;90.70
48752;DHT22;34544;48.836;9.174;2022-08-01T00:18:26;21.90;91.00
48752;DHT22;34544;48.836;9.174;2022-08-01T00:20:52;21.90;91.00
48752;DHT22;34544;48.836;9.174;2022-08-01T00:23:17;21.90;91.00
48752;DHT22;34544;48.836;9.174;2022-08-01T00:25:43;21.80;91.30
48752;DHT22;34544;48.836;9.174;2022-08-01T00:28:09;21.80;91.40
48752;DHT22;34544;48.836;9.174;2022-08-01T00:30:35;21.80;91.30
48752;DHT22;34544;48.836;9.174;2022-08-01T00:33:01;21.80;91.40
48752;DHT22;34544;48.836;9.174;2022-08-01T00:35:27;21.80;91.50
48752;DHT22;34544;48.836;9.174;2022-08-01T00:37:53;21.70;91.70
48752;DHT22;34544;48.836;9.174;2022-08-01T00:40:18;21.70;91.80
48752;DHT22;34544;48.836;9.174;2022-08-01T00:42:44;21.70;91.80
48752;DHT22;34544;48.836;9.174;2022-08-01T00:45:10;21.80;91.90
48752;DHT22;34544;48.836;9.174;2022-08-01T00:47:36;21.80;91.90
48752;DHT22;34544;48.836;9.174;2022-08-01T00:50:06;21.80;92.10
48752;DHT22;34544;48.836;9.174;2022-08-01T00:52:33;21.80;91.90
48752;DHT22;34544;48.836;9.174;2022-08-01T00:54:59;21.80;92.00
48752;DHT22;34544;48.836;9.174;2022-08-01T00:57:25;21.80;92.20
48752;DHT22;34544;48.836;9.174;2022-08-01T00:59:52;21.80;92.30
48752;DHT22;34544;48.836;9.174;2022-08-01T01:02:18;21.80;92.40
48752;DHT22;34544;48.836;9.174;2022-08-01T01:04:44;21.80;92.50
48752;DHT22;34544;48.836;9.174;2022-08-01T01:10:00;21.80;92.80
48752;DHT22;34544;48.836;9.174;2022-08-01T01:15:33;21.80;93.30
48752;DHT22;34544;48.836;9.174;2022-08-01T01:18:12;21.70;93.30
48752;DHT22;34544;48.836;9.174;2022-08-01T01:31:59;21.50;94.30
48752;DHT22;34544;48.836;9.174;2022-08-01T01:34:28;21.60;94.60
48752;DHT22;34544;48.836;9.174;2022-08-01T01:36:56;21.50;94.70
48752;DHT22;34544;48.836;9.174;2022-08-01T01:39:25;21.60;94.80
48752;DHT22;34544;48.836;9.174;2022-08-01T01:41:53;21.60;94.90
48752;DHT22;34544;48.836;9.174;2022-08-01T01:44:20;21.60;94.90
48752;DHT22;34544;48.836;9.174;2022-08-01T01:46:47;21.60;95.10
48752;DHT22;34544;48.836;9.174;2022-08-01T01:49:14;21.50;95.20
48752;DHT22;34544;48.836;9.174;2022-08-01T01:51:42;21.60;95.40
48752;DHT22;34544;48.836;9.174;2022-08-01T01:54:09;21.50;95.50
48752;DHT22;34544;48.836;9.174;2022-08-01T01:56:35;21.50;95.60
48752;DHT22;34544;48.836;9.174;2022-08-01T01:59:18;21.50;95.80
48752;DHT22;34544;48.836;9.174;2022-08-01T02:01:47;21.50;95.90
48752;DHT22;34544;48.836;9.174;2022-08-01T02:04:14;21.50;96.00
48752;DHT22;34544;48.836;9.174;2022-08-01T02:06:43;21.40;96.00
48752;DHT22;34544;48.836;9.174;2022-08-01T02:09:11;21.40;96.40
48752;DHT22;34544;48.836;9.174;2022-08-01T02:11:40;21.30;96.60
48752;DHT22;34544;48.836;9.174;2022-08-01T02:14:07;21.30;96.90
48752;DHT22;34544;48.836;9.174;2022-08-01T02:16:36;21.20;97.00
48752;DHT22;34544;48.836;9.174;2022-08-01T02:19:05;21.20;97.30
48752;DHT22;34544;48.836;9.174;2022-08-01T02:21:37;21.20;97.60
48752;DHT22;34544;48.836;9.174;2022-08-01T02:24:12;21.10;97.70
48752;DHT22;34544;48.836;9.174;2022-08-01T02:26:43;21.20;97.90
48752;DHT22;34544;48.836;9.174;2022-08-01T02:29:15;21.10;97.90
48752;DHT22;34544;48.836;9.174;2022-08-01T02:31:44;21.00;98.30
48752;DHT22;34544;48.836;9.174;2022-08-01T02:34:16;21.00;98.60
48752;DHT22;34544;48.836;9.174;2022-08-01T02:36:44;21.00;98.90
48752;DHT22;34544;48.836;9.174;2022-08-01T02:39:13;20.90;98.90
48752;DHT22;34544;48.836;9.174;2022-08-01T02:41:50;20.90;99.40
48752;DHT22;34544;48.836;9.174;2022-08-01T02:44:28;20.90;99.30
48752;DHT22;34544;48.836;9.174;2022-08-01T02:46:59;20.90;99.80
48752;DHT22;34544;48.836;9.174;2022-08-01T02:49:33;20.80;99.80
48752;DHT22;34544;48.836;9.174;2022-08-01T02:52:09;20.80;99.90
48752;DHT22;34544;48.836;9.174;2022-08-01T02:54:37;20.80;99.90
48752;DHT22;34544;48.836;9.174;2022-08-01T02:57:06;20.80;99.90
48752;DHT22;34544;48.836;9.174;2022-08-01T02:59:33;20.80;99.90
48752;DHT22;34544;48.836;9.174;2022-08-01T03:02:02;20.80;99.90
48752;DHT22;34544;48.836;9.174;2022-08-01T03:04:33;20.70;99.90
48752;DHT22;34544;48.836;9.174;2022-08-01T03:07:02;20.70;99.90
48752;DHT22;34544;48.836;9.174;2022-08-01T03:09:29;20.70;99.90
48752;DHT22;34544;48.836;9.174;2022-08-01T03:11:59;20.70;99.90
48752;DHT22;34544;48.836;9.174;2022-08-01T03:14:27;20.70;99.90
48752;DHT22;34544;48.836;9.174;2022-08-01T03:16:54;20.60;99.90
48752;DHT22;34544;48.836;9.174;2022-08-01T03:19:23;20.60;99.90
48752;DHT22;34544;48.836;9.174;2022-08-01T03:21:50;20.60;99.90
48752;DHT22;34544;48.836;9.174;2022-08-01T03:24:17;20.60;99.90
48752;DHT22;34544;48.836;9.174;2022-08-01T03:26:44;20.50;99.90
48752;DHT22;34544;48.836;9.174;2022-08-01T03:29:17;20.50;99.90
48752;DHT22;34544;48.836;9.174;2022-08-01T03:31:46;20.40;99.90
48752;DHT22;34544;48.836;9.174;2022-08-01T03:34:13;20.40;99.90
48752;DHT22;34544;48.836;9.174;2022-08-01T03:36:55;20.40;99.90
48752;DHT22;34544;48.836;9.174;2022-08-01T03:39:26;20.40;99.90
48752;DHT22;34544;48.836;9.174;2022-08-01T03:42:07;20.30;99.90
48752;DHT22;34544;48.836;9.174;2022-08-01T03:44:36;20.30;99.90
48752;DHT22;34544;48.836;9.174;2022-08-01T03:47:07;20.20;99.90
48752;DHT22;34544;48.836;9.174;2022-08-01T03:49:43;20.20;99.90
48752;DHT22;34544;48.836;9.174;2022-08-01T03:52:10;20.20;99.90
48752;DHT22;34544;48.836;9.174;2022-08-01T03:54:40;20.10;99.90
48752;DHT22;34544;48.836;9.174;2022-08-01T03:57:06;20.10;99.90
48752;DHT22;34544;48.836;9.174;2022-08-01T03:59:34;20.10;99.90
48752;DHT22;34544;48.836;9.174;2022-08-01T04:02:01;20.10;99.90
48752;DHT22;34544;48.836;9.174;2022-08-01T04:04:28;20.10;99.90
48752;DHT22;34544;48.836;9.174;2022-08-01T04:06:54;20.10;99.90
48752;DHT22;34544;48.836;9.174;2022-08-01T04:09:21;20.10;99.90
48752;DHT22;34544;48.836;9.174;2022-08-01T04:11:49;20.10;99.90
48752;DHT22;34544;48.836;9.174;2022-08-01T04:14:15;20.10;99.90
48752;DHT22;34544;48.836;9.174;2022-08-01T04:16:41;20.20;99.90
48752;DHT22;34544;48.836;9.174;2022-08-01T04:19:06;20.10;99.90
48752;DHT22;34544;48.836;9.174;2022-08-01T04:21:34;20.20;99.90
48752;DHT22;34544;48.836;9.174;2022-08-01T04:24:09;20.30;99.90
48752;DHT22;34544;48.836;9.174;2022-08-01T04:26:37;20.30;99.90
48752;DHT22;34544;48.836;9.174;2022-08-01T04:29:04;20.30;99.90
48752;DHT22;34544;48.836;9.174;2022-08-01T04:31:32;20.40;99.90
48752;DHT22;34544;48.836;9.174;2022-08-01T04:34:02;20.40;99.90
48752;DHT22;34544;48.836;9.174;2022-08-01T04:36:28;20.40;99.90
48752;DHT22;34544;48.836;9.174;2022-08-01T04:38:59;20.50;99.90
48752;DHT22;34544;48.836;9.174;2022-08-01T04:41:25;20.50;99.90
48752;DHT22;34544;48.836;9.174;2022-08-01T04:43:51;20.50;99.90
48752;DHT22;34544;48.836;9.174;2022-08-01T04:46:17;20.50;99.90
48752;DHT22;34544;48.836;9.174;2022-08-01T04:48:44;20.50;99.90
48752;DHT22;34544;48.836;9.174;2022-08-01T04:51:17;20.60;99.90
48752;DHT22;34544;48.836;9.174;2022-08-01T04:53:45;20.60;99.90
48752;DHT22;34544;48.836;9.174;2022-08-01T04:56:14;20.60;99.90
48752;DHT22;34544;48.836;9.174;2022-08-01T04:58:43;20.70;99.90
48752;DHT22;34544;48.836;9.174;2022-08-01T05:01:10;20.70;99.90
48752;DHT22;34544;48.836;9.174;2022-08-01T05:03:36;20.80;99.90
48752;DHT22;34544;48.836;9.174;2022-08-01T05:06:02;20.80;99.90
48752;DHT22;34544;48.836;9.174;2022-08-01T05:08:27;20.90;99.90
48752;DHT22;34544;48.836;9.174;2022-08-01T05:10:53;20.90;99.90
48752;DHT22;34544;48.836;9.174;2022-08-01T05:13:19;21.00;99.90
48752;DHT22;34544;48.836;9.174;2022-08-01T05:15:45;21.10;99.90
48752;DHT22;34544;48.836;9.174;2022-08-01T05:18:11;21.20;99.90
48752;DHT22;34544;48.836;9.174;2022-08-01T05:20:37;21.20;99.90
48752;DHT22;34544;48.836;9.174;2022-08-01T05:23:06;21.30;99.90
48752;DHT22;34544;48.836;9.174;2022-08-01T05:25:32;21.40;99.90
48752;DHT22;34544;48.836;9.174;2022-08-01T05:27:58;21.50;99.90
48752;DHT22;34544;48.836;9.174;2022-08-01T05:30:24;21.60;99.90
48752;DHT22;34544;48.836;9.174;2022-08-01T05:32:50;21.60;99.90
48752;DHT22;34544;48.836;9.174;2022-08-01T05:35:15;21.70;99.90
48752;DHT22;34544;48.836;9.174;2022-08-01T05:37:41;21.80;99.90
48752;DHT22;34544;48.836;9.174;2022-08-01T05:40:07;21.90;99.90
48752;DHT22;34544;48.836;9.174;2022-08-01T05:42:33;21.90;99.90
48752;DHT22;34544;48.836;9.174;2022-08-01T05:44:58;21.90;99.90
48752;DHT22;34544;48.836;9.174;2022-08-01T05:47:24;22.00;99.90
48752;DHT22;34544;48.836;9.174;2022-08-01T05:49:50;22.10;99.90
48752;DHT22;34544;48.836;9.174;2022-08-01T05:52:15;22.10;99.90
48752;DHT22;34544;48.836;9.174;2022-08-01T05:54:41;22.20;99.90
48752;DHT22;34544;48.836;9.174;2022-08-01T05:57:07;22.30;99.90
48752;DHT22;34544;48.836;9.174;2022-08-01T05:59:33;22.30;99.90
48752;DHT22;34544;48.836;9.174;2022-08-01T06:01:58;22.40;99.90
48752;DHT22;34544;48.836;9.174;2022-08-01T06:04:24;22.50;99.90
48752;DHT22;34544;48.836;9.174;2022-08-01T06:06:49;22.60;99.90
48752;DHT22;34544;48.836;9.174;2022-08-01T06:09:15;22.70;99.90
48752;DHT22;34544;48.836;9.174;2022-08-01T06:11:41;22.70;99.90
48752;DHT22;34544;48.836;9.174;2022-08-01T06:14:07;22.70;99.90
48752;DHT22;34544;48.836;9.174;2022-08-01T06:16:38;22.80;99.90
48752;DHT22;34544;48.836;9.174;2022-08-01T06:19:04;22.80;99.90
48752;DHT22;34544;48.836;9.174;2022-08-01T06:21:30;22.90;99.90
48752;DHT22;34544;48.836;9.174;2022-08-01T06:23:55;22.90;99.90
48752;DHT22;34544;48.836;9.174;2022-08-01T06:26:21;23.00;99.90
48752;DHT22;34544;48.836;9.174;2022-08-01T06:28:46;23.00;99.90
48752;DHT22;34544;48.836;9.174;2022-08-01T06:31:13;23.10;99.90
48752;DHT22;34544;48.836;9.174;2022-08-01T06:33:40;23.10;99.90
48752;DHT22;34544;48.836;9.174;2022-08-01T06:36:05;23.20;99.90
48752;DHT22;34544;48.836;9.174;2022-08-01T06:38:31;23.20;99.90
48752;DHT22;34544;48.836;9.174;2022-08-01T06:40:57;23.30;99.90
48752;DHT22;34544;48.836;9.174;2022-08-01T06:43:22;23.40;99.90
48752;DHT22;34544;48.836;9.174;2022-08-01T06:48:15;23.60;99.90
48752;DHT22;34544;48.836;9.174;2022-08-01T06:50:40;23.60;99.90
48752;DHT22;34544;48.836;9.174;2022-08-01T06:53:06;23.60;99.90
48752;DHT22;34544;48.836;9.174;2022-08-01T06:55:32;23.60;99.90
48752;DHT22;34544;48.836;9.174;2022-08-01T06:57:57;23.70;99.90
48752;DHT22;34544;48.836;9.174;2022-08-01T07:00:24;23.80;99.90
48752;DHT22;34544;48.836;9.174;2022-08-01T07:02:54;23.90;99.90
48752;DHT22;34544;48.836;9.174;2022-08-01T07:05:20;24.00;99.90
48752;DHT22;34544;48.836;9.174;2022-08-01T07:07:47;24.10;99.90
48752;DHT22;34544;48.836;9.174;2022-08-01T07:10:13;24.30;99.90
48752;DHT22;34544;48.836;9.174;2022-08-01T07:12:39;24.50;99.90
48752;DHT22;34544;48.836;9.174;2022-08-01T07:15:08;24.60;99.90
48752;DHT22;34544;48.836;9.174;2022-08-01T07:17:41;24.70;99.90
48752;DHT22;34544;48.836;9.174;2022-08-01T07:20:08;24.80;99.90
48752;DHT22;34544;48.836;9.174;2022-08-01T07:22:34;24.80;99.90
48752;DHT22;34544;48.836;9.174;2022-08-01T07:25:01;24.80;99.90
48752;DHT22;34544;48.836;9.174;2022-08-01T07:27:26;24.70;99.90
48752;DHT22;34544;48.836;9.174;2022-08-01T07:29:52;24.70;99.90
48752;DHT22;34544;48.836;9.174;2022-08-01T07:32:17;24.70;99.90
48752;DHT22;34544;48.836;9.174;2022-08-01T07:34:43;24.90;99.90
48752;DHT22;34544;48.836;9.174;2022-08-01T07:37:09;25.10;99.90
48752;DHT22;34544;48.836;9.174;2022-08-01T07:39:34;25.30;99.90
48752;DHT22;34544;48.836;9.174;2022-08-01T07:42:00;25.50;99.90
48752;DHT22;34544;48.836;9.174;2022-08-01T07:44:25;25.60;99.90
48752;DHT22;34544;48.836;9.174;2022-08-01T07:46:51;25.60;99.90
48752;DHT22;34544;48.836;9.174;2022-08-01T07:49:17;25.80;99.90
48752;DHT22;34544;48.836;9.174;2022-08-01T07:51:42;26.10;99.90
48752;DHT22;34544;48.836;9.174;2022-08-01T07:54:08;26.20;99.50
48752;DHT22;34544;48.836;9.174;2022-08-01T07:56:33;26.20;99.40
48752;DHT22;34544;48.836;9.174;2022-08-01T07:58:59;26.10;99.30
48752;DHT22;34544;48.836;9.174;2022-08-01T08:01:25;26.20;99.30
48752;DHT22;34544;48.836;9.174;2022-08-01T08:03:50;26.10;99.00
48752;DHT22;34544;48.836;9.174;2022-08-01T08:06:16;26.00;99.20
48752;DHT22;34544;48.836;9.174;2022-08-01T08:08:41;26.10;99.20
48752;DHT22;34544;48.836;9.174;2022-08-01T08:11:07;26.10;99.10
48752;DHT22;34544;48.836;9.174;2022-08-01T08:13:33;26.20;99.10
48752;DHT22;34544;48.836;9.174;2022-08-01T08:15:58;26.40;99.20
48752;DHT22;34544;48.836;9.174;2022-08-01T08:18:25;26.70;98.70
48752;DHT22;34544;48.836;9.174;2022-08-01T08:20:51;27.10;98.10
48752;DHT22;34544;48.836;9.174;2022-08-01T08:23:16;27.40;97.40
48752;DHT22;34544;48.836;9.174;2022-08-01T08:26:00;27.60;96.80
48752;DHT22;34544;48.836;9.174;2022-08-01T08:28:26;27.70;97.00
48752;DHT22;34544;48.836;9.174;2022-08-01T08:30:51;27.90;96.60
48752;DHT22;34544;48.836;9.174;2022-08-01T08:33:18;28.00;96.20
48752;DHT22;34544;48.836;9.174;2022-08-01T08:35:44;28.00;95.50
48752;DHT22;34544;48.836;9.174;2022-08-01T08:38:09;28.00;95.60
48752;DHT22;34544;48.836;9.174;2022-08-01T08:40:36;28.10;95.70
48752;DHT22;34544;48.836;9.174;2022-08-01T08:43:04;28.00;95.20
48752;DHT22;34544;48.836;9.174;2022-08-01T08:45:31;27.80;95.30
48752;DHT22;34544;48.836;9.174;2022-08-01T08:47:57;27.70;95.90
48752;DHT22;34544;48.836;9.174;2022-08-01T08:50:24;27.90;95.60
48752;DHT22;34544;48.836;9.174;2022-08-01T08:52:52;28.20;95.10
48752;DHT22;34544;48.836;9.174;2022-08-01T08:55:18;28.20;95.10
48752;DHT22;34544;48.836;9.174;2022-08-01T08:57:44;28.30;95.50
48752;DHT22;34544;48.836;9.174;2022-08-01T09:00:11;28.20;94.60
48752;DHT22;34544;48.836;9.174;2022-08-01T09:02:43;28.10;95.20
48752;DHT22;34544;48.836;9.174;2022-08-01T09:05:09;28.10;95.20
48752;DHT22;34544;48.836;9.174;2022-08-01T09:07:35;28.20;95.20
48752;DHT22;34544;48.836;9.174;2022-08-01T09:10:00;28.30;94.90
48752;DHT22;34544;48.836;9.174;2022-08-01T09:12:26;28.20;94.40
48752;DHT22;34544;48.836;9.174;2022-08-01T09:14:52;28.10;94.80
48752;DHT22;34544;48.836;9.174;2022-08-01T09:17:19;28.10;94.50
48752;DHT22;34544;48.836;9.174;2022-08-01T09:19:54;28.10;94.50
48752;DHT22;34544;48.836;9.174;2022-08-01T09:22:22;28.10;94.40
48752;DHT22;34544;48.836;9.174;2022-08-01T09:27:28;28.10;94.40
48752;DHT22;34544;48.836;9.174;2022-08-01T09:29:54;28.00;94.70
48752;DHT22;34544;48.836;9.174;2022-08-01T09:32:31;27.90;94.80
48752;DHT22;34544;48.836;9.174;2022-08-01T09:34:58;27.90;95.10
48752;DHT22;34544;48.836;9.174;2022-08-01T09:37:43;27.80;94.80
48752;DHT22;34544;48.836;9.174;2022-08-01T09:40:09;27.80;95.10
48752;DHT22;34544;48.836;9.174;2022-08-01T09:42:35;27.80;94.90
48752;DHT22;34544;48.836;9.174;2022-08-01T09:45:00;28.00;95.10
48752;DHT22;34544;48.836;9.174;2022-08-01T09:47:40;28.00;94.90
48752;DHT22;34544;48.836;9.174;2022-08-01T09:50:06;27.90;94.80
48752;DHT22;34544;48.836;9.174;2022-08-01T09:52:32;27.90;94.60
48752;DHT22;34544;48.836;9.174;2022-08-01T09:55:00;28.00;94.60
48752;DHT22;34544;48.836;9.174;2022-08-01T09:57:27;28.30;94.40
48752;DHT22;34544;48.836;9.174;2022-08-01T09:59:55;28.50;93.60
48752;DHT22;34544;48.836;9.174;2022-08-01T10:04:54;28.90;92.90
48752;DHT22;34544;48.836;9.174;2022-08-01T10:07:20;28.80;93.00
48752;DHT22;34544;48.836;9.174;2022-08-01T10:09:48;28.70;92.80
48752;DHT22;34544;48.836;9.174;2022-08-01T10:12:19;28.90;94.00
48752;DHT22;34544;48.836;9.174;2022-08-01T10:14:47;29.40;93.00
48752;DHT22;34544;48.836;9.174;2022-08-01T10:17:15;30.20;92.40
48752;DHT22;34544;48.836;9.174;2022-08-01T10:19:43;30.80;91.80
48752;DHT22;34544;48.836;9.174;2022-08-01T10:22:11;31.50;90.80
48752;DHT22;34544;48.836;9.174;2022-08-01T10:24:43;32.10;89.70
48752;DHT22;34544;48.836;9.174;2022-08-01T10:27:10;32.30;88.50
48752;DHT22;34544;48.836;9.174;2022-08-01T10:29:55;32.50;88.40
48752;DHT22;34544;48.836;9.174;2022-08-01T10:32:22;32.40;86.90
48752;DHT22;34544;48.836;9.174;2022-08-01T10:34:52;32.50;86.70
48752;DHT22;34544;48.836;9.174;2022-08-01T10:37:18;32.70;86.20
48752;DHT22;34544;48.836;9.174;2022-08-01T10:39:44;33.10;85.90
48752;DHT22;34544;48.836;9.174;2022-08-01T10:42:11;33.60;84.60
48752;DHT22;34544;48.836;9.174;2022-08-01T10:44:37;34.00;83.80
48752;DHT22;34544;48.836;9.174;2022-08-01T10:47:11;34.60;82.50
48752;DHT22;34544;48.836;9.174;2022-08-01T10:49:58;34.90;80.70
48752;DHT22;34544;48.836;9.174;2022-08-01T10:52:24;35.00;80.90
48752;DHT22;34544;48.836;9.174;2022-08-01T10:55:04;35.20;80.00
48752;DHT22;34544;48.836;9.174;2022-08-01T10:57:47;35.20;79.00
48752;DHT22;34544;48.836;9.174;2022-08-01T11:00:21;35.10;79.00
48752;DHT22;34544;48.836;9.174;2022-08-01T11:02:58;35.40;77.90
48752;DHT22;34544;48.836;9.174;2022-08-01T11:05:27;35.20;77.90
48752;DHT22;34544;48.836;9.174;2022-08-01T11:07:54;35.20;78.10
48752;DHT22;34544;48.836;9.174;2022-08-01T11:10:39;35.50;77.00
48752;DHT22;34544;48.836;9.174;2022-08-01T11:13:06;36.00;76.60
48752;DHT22;34544;48.836;9.174;2022-08-01T11:15:40;36.20;87.80
48752;DHT22;34544;48.836;9.174;2022-08-01T11:20:58;35.80;77.50
48752;DHT22;34544;48.836;9.174;2022-08-01T11:23:25;35.90;76.50
48752;DHT22;34544;48.836;9.174;2022-08-01T11:28:21;35.50;75.90
48752;DHT22;34544;48.836;9.174;2022-08-01T11:30:54;35.60;77.70
48752;DHT22;34544;48.836;9.174;2022-08-01T11:38:44;36.70;75.10
48752;DHT22;34544;48.836;9.174;2022-08-01T11:44:29;37.30;72.80
48752;DHT22;34544;48.836;9.174;2022-08-01T11:54:31;36.60;73.50
48752;DHT22;34544;48.836;9.174;2022-08-01T11:57:00;36.60;72.40
48752;DHT22;34544;48.836;9.174;2022-08-01T11:59:26;37.10;72.70
48752;DHT22;34544;48.836;9.174;2022-08-01T12:01:52;37.10;72.70
48752;DHT22;34544;48.836;9.174;2022-08-01T12:04:18;37.50;70.80
48752;DHT22;34544;48.836;9.174;2022-08-01T12:06:44;38.10;71.00
48752;DHT22;34544;48.836;9.174;2022-08-01T12:09:17;38.60;69.80
48752;DHT22;34544;48.836;9.174;2022-08-01T12:11:43;38.30;67.70
48752;DHT22;34544;48.836;9.174;2022-08-01T12:14:09;38.20;70.00
48752;DHT22;34544;48.836;9.174;2022-08-01T12:16:40;38.10;72.00
48752;DHT22;34544;48.836;9.174;2022-08-01T12:19:21;38.20;73.00
48752;DHT22;34544;48.836;9.174;2022-08-01T12:22:06;38.30;73.80
48752;DHT22;34544;48.836;9.174;2022-08-01T12:24:34;38.40;73.80
48752;DHT22;34544;48.836;9.174;2022-08-01T12:26:59;38.80;70.30
48752;DHT22;34544;48.836;9.174;2022-08-01T12:29:39;38.70;70.00
48752;DHT22;34544;48.836;9.174;2022-08-01T12:32:28;38.40;69.90
48752;DHT22;34544;48.836;9.174;2022-08-01T12:35:00;38.20;69.70
48752;DHT22;34544;48.836;9.174;2022-08-01T12:37:26;38.20;70.20
48752;DHT22;34544;48.836;9.174;2022-08-01T12:39:51;38.40;69.70
48752;DHT22;34544;48.836;9.174;2022-08-01T12:42:18;38.50;70.30
48752;DHT22;34544;48.836;9.174;2022-08-01T12:44:46;38.40;69.10
48752;DHT22;34544;48.836;9.174;2022-08-01T12:47:14;38.30;69.40
48752;DHT22;34544;48.836;9.174;2022-08-01T12:49:43;38.30;69.40
48752;DHT22;34544;48.836;9.174;2022-08-01T12:52:10;38.60;69.50
48752;DHT22;34544;48.836;9.174;2022-08-01T12:55:09;38.30;68.20
48752;DHT22;34544;48.836;9.174;2022-08-01T12:57:37;38.40;69.20
48752;DHT22;34544;48.836;9.174;2022-08-01T13:02:36;39.30;66.60
48752;DHT22;34544;48.836;9.174;2022-08-01T13:05:03;39.20;67.50
48752;DHT22;34544;48.836;9.174;2022-08-01T13:07:45;38.80;66.80
48752;DHT22;34544;48.836;9.174;2022-08-01T13:10:13;38.10;68.20
48752;DHT22;34544;48.836;9.174;2022-08-01T13:12:40;37.60;68.80
48752;DHT22;34544;48.836;9.174;2022-08-01T13:17:50;36.20;69.80
48752;DHT22;34544;48.836;9.174;2022-08-01T13:20:33;35.80;71.40
48752;DHT22;34544;48.836;9.174;2022-08-01T13:25:49;35.50;72.70
48752;DHT22;34544;48.836;9.174;2022-08-01T13:28:34;35.30;70.90
48752;DHT22;34544;48.836;9.174;2022-08-01T13:31:08;35.60;71.10
48752;DHT22;34544;48.836;9.174;2022-08-01T13:33:47;36.60;70.50
48752;DHT22;34544;48.836;9.174;2022-08-01T13:36:13;37.10;69.80
48752;DHT22;34544;48.836;9.174;2022-08-01T13:38:41;37.50;69.70
48752;DHT22;34544;48.836;9.174;2022-08-01T13:41:26;37.60;69.60
48752;DHT22;34544;48.836;9.174;2022-08-01T13:43:52;38.00;68.70
48752;DHT22;34544;48.836;9.174;2022-08-01T13:46:18;37.90;68.60
48752;DHT22;34544;48.836;9.174;2022-08-01T13:48:44;37.40;68.60
48752;DHT22;34544;48.836;9.174;2022-08-01T13:51:10;36.90;69.30
48752;DHT22;34544;48.836;9.174;2022-08-01T13:53:36;36.20;70.50
48752;DHT22;34544;48.836;9.174;2022-08-01T13:56:01;35.50;71.60
48752;DHT22;34544;48.836;9.174;2022-08-01T13:58:27;34.60;72.20
48752;DHT22;34544;48.836;9.174;2022-08-01T14:00:54;34.20;73.00
48752;DHT22;34544;48.836;9.174;2022-08-01T14:03:21;33.80;73.50
48752;DHT22;34544;48.836;9.174;2022-08-01T14:05:47;33.50;74.50
48752;DHT22;34544;48.836;9.174;2022-08-01T14:08:13;33.20;75.30
48752;DHT22;34544;48.836;9.174;2022-08-01T14:10:38;32.90;76.20
48752;DHT22;34544;48.836;9.174;2022-08-01T14:13:04;32.80;76.50
48752;DHT22;34544;48.836;9.174;2022-08-01T14:15:31;32.80;76.50
48752;DHT22;34544;48.836;9.174;2022-08-01T14:17:57;33.30;75.80
48752;DHT22;34544;48.836;9.174;2022-08-01T14:20:23;33.70;74.30
48752;DHT22;34544;48.836;9.174;2022-08-01T14:22:49;34.10;73.30
48752;DHT22;34544;48.836;9.174;2022-08-01T14:25:14;34.80;73.60
48752;DHT22;34544;48.836;9.174;2022-08-01T14:27:40;35.30;72.50
48752;DHT22;34544;48.836;9.174;2022-08-01T14:30:08;35.60;72.40
48752;DHT22;34544;48.836;9.174;2022-08-01T14:32:34;35.70;71.90
48752;DHT22;34544;48.836;9.174;2022-08-01T14:35:05;35.40;71.60
48752;DHT22;34544;48.836;9.174;2022-08-01T14:37:31;34.90;72.10
48752;DHT22;34544;48.836;9.174;2022-08-01T14:39:58;34.60;73.00
48752;DHT22;34544;48.836;9.174;2022-08-01T14:42:24;34.70;72.90
48752;DHT22;34544;48.836;9.174;2022-08-01T14:44:49;34.80;72.50
48752;DHT22;34544;48.836;9.174;2022-08-01T14:47:16;34.70;72.20
48752;DHT22;34544;48.836;9.174;2022-08-01T14:49:41;35.00;72.60
48752;DHT22;34544;48.836;9.174;2022-08-01T14:52:07;35.40;72.40
48752;DHT22;34544;48.836;9.174;2022-08-01T14:54:32;35.60;72.10
48752;DHT22;34544;48.836;9.174;2022-08-01T14:56:58;35.40;72.00
48752;DHT22;34544;48.836;9.174;2022-08-01T14:59:24;35.50;71.60
48752;DHT22;34544;48.836;9.174;2022-08-01T15:01:49;35.30;71.30
48752;DHT22;34544;48.836;9.174;2022-08-01T15:04:15;35.10;71.90
48752;DHT22;34544;48.836;9.174;2022-08-01T15:06:42;35.20;72.30
48752;DHT22;34544;48.836;9.174;2022-08-01T15:09:08;35.30;72.00
48752;DHT22;34544;48.836;9.174;2022-08-01T15:11:34;34.80;72.20
48752;DHT22;34544;48.836;9.174;2022-08-01T15:13:59;34.30;72.00
48752;DHT22;34544;48.836;9.174;2022-08-01T15:16:43;33.90;73.10
48752;DHT22;34544;48.836;9.174;2022-08-01T15:19:09;33.80;72.90
48752;DHT22;34544;48.836;9.174;2022-08-01T15:21:35;34.30;73.30
48752;DHT22;34544;48.836;9.174;2022-08-01T15:24:00;35.00;72.20
48752;DHT22;34544;48.836;9.174;2022-08-01T15:26:26;35.70;71.10
48752;DHT22;34544;48.836;9.174;2022-08-01T15:28:53;36.10;71.10
48752;DHT22;34544;48.836;9.174;2022-08-01T15:31:19;36.10;69.60
48752;DHT22;34544;48.836;9.174;2022-08-01T15:33:45;36.20;69.80
48752;DHT22;34544;48.836;9.174;2022-08-01T15:36:11;35.90;70.00
48752;DHT22;34544;48.836;9.174;2022-08-01T15:38:36;35.30;70.50
48752;DHT22;34544;48.836;9.174;2022-08-01T15:41:02;34.60;70.80
48752;DHT22;34544;48.836;9.174;2022-08-01T15:43:28;34.30;71.30
48752;DHT22;34544;48.836;9.174;2022-08-01T15:45:53;33.70;72.20
48752;DHT22;34544;48.836;9.174;2022-08-01T15:48:19;33.30;73.40
48752;DHT22;34544;48.836;9.174;2022-08-01T15:50:44;33.00;73.90
48752;DHT22;34544;48.836;9.174;2022-08-01T15:53:10;32.70;73.90
48752;DHT22;34544;48.836;9.174;2022-08-01T15:55:37;32.30;74.40
48752;DHT22;34544;48.836;9.174;2022-08-01T15:58:03;31.80;75.20
48752;DHT22;34544;48.836;9.174;2022-08-01T16:00:29;31.60;76.60
48752;DHT22;34544;48.836;9.174;2022-08-01T16:02:55;31.40;76.30
48752;DHT22;34544;48.836;9.174;2022-08-01T16:05:22;31.20;77.10
48752;DHT22;34544;48.836;9.174;2022-08-01T16:07:48;31.00;77.20
48752;DHT22;34544;48.836;9.174;2022-08-01T16:10:14;30.80;78.10
48752;DHT22;34544;48.836;9.174;2022-08-01T16:12:39;30.70;78.10
48752;DHT22;34544;48.836;9.174;2022-08-01T16:15:05;30.60;78.40
48752;DHT22;34544;48.836;9.174;2022-08-01T16:17:32;30.40;78.30
48752;DHT22;34544;48.836;9.174;2022-08-01T16:19:57;30.30;78.90
48752;DHT22;34544;48.836;9.174;2022-08-01T16:22:23;30.40;79.50
48752;DHT22;34544;48.836;9.174;2022-08-01T16:24:49;30.40;79.20
48752;DHT22;34544;48.836;9.174;2022-08-01T16:27:15;30.40;79.20
48752;DHT22;34544;48.836;9.174;2022-08-01T16:29:40;30.50;78.90